Jackson, Minnesota
Current Conditions -  °F | °C
As of 4:13 AM on Sunday 25 Jan 2015 (Local Time) from KMJQ Reporting Station
Light Snow Light Snow  
Wind Chill: 24°   Ceiling: 300
Heat Index: 34°   Visibility: 3mi
Dew Point: 32°   Wind: 16mph
Humidity: 93%   Direction: 20°NNE
Pressure: 29.73"   Gusts: NA
Location:  43.62°N, 94.99°W
Report Text: KMJQ 251013Z AUTO 02014KT 3SM -SN OVC003 01/00 A2973 RMK AO2
Loading
Personal Weather Stations






























Interactive Weather Map New forecast layout! Learn more

10-Day Weather Forecast

Advertisements
Track Severe Weather on mobile